Time;durP1;ratioP1;P1;durP2;ratioP2;P2;SDS_P1;SDS_P2;PMS_P1;PMS_P2;Temp;Humidity;BMP_temperature;BMP_pressure;BME280_temperature;BME280_humidity;BME280_pressure;Samples;Min_cycle;Max_cycle;Signal;HPM_P1;HPM_P2
2023/08/16 00:01:15;;;;;;;4.40;4.00;;;21.50;99.90;;;;;;5036483;28;20198;-83
2023/08/16 00:03:41;;;;;;;4.63;4.23;;;21.50;99.90;;;;;;5045920;28;20217;-84
2023/08/16 00:06:11;;;;;;;4.87;4.30;;;21.50;99.90;;;;;;5033564;28;20237;-80
2023/08/16 00:08:38;;;;;;;4.47;4.07;;;21.60;99.90;;;;;;5038802;28;20181;-80
2023/08/16 00:11:04;;;;;;;4.07;3.78;;;21.50;99.90;;;;;;5038298;28;20442;-80
2023/08/16 00:13:30;;;;;;;3.73;3.30;;;21.50;99.90;;;;;;5033322;28;20190;-80
2023/08/16 00:15:55;;;;;;;3.92;3.60;;;21.50;99.90;;;;;;5036451;28;20468;-80
2023/08/16 00:18:21;;;;;;;4.37;3.97;;;21.50;99.90;;;;;;5040076;28;20747;-81
2023/08/16 00:20:46;;;;;;;5.47;3.67;;;21.50;99.90;;;;;;5038449;28;20213;-83
2023/08/16 00:23:12;;;;;;;3.80;3.50;;;21.50;99.90;;;;;;5031811;28;20205;-81
2023/08/16 00:25:39;;;;;;;4.27;3.87;;;21.50;99.90;;;;;;5035562;28;20627;-80
2023/08/16 00:28:05;;;;;;;4.20;3.80;;;21.60;99.90;;;;;;5031886;28;20177;-80
2023/08/16 00:30:30;;;;;;;4.33;4.03;;;21.70;99.90;;;;;;5032079;28;20472;-80
2023/08/16 00:32:56;;;;;;;6.80;4.40;;;21.70;99.90;;;;;;5034585;28;20275;-80
2023/08/16 00:35:22;;;;;;;5.50;4.97;;;21.70;99.90;;;;;;5040306;28;20635;-84
2023/08/16 00:37:47;;;;;;;4.60;4.20;;;21.70;99.90;;;;;;5032289;28;20175;-80
2023/08/16 00:40:14;;;;;;;4.90;4.50;;;21.70;99.90;;;;;;5032768;28;20185;-81
2023/08/16 00:42:40;;;;;;;4.10;3.70;;;21.80;99.90;;;;;;5028907;28;20186;-82
2023/08/16 00:45:06;;;;;;;4.63;4.27;;;21.80;99.90;;;;;;5034547;28;20204;-80
2023/08/16 00:47:33;;;;;;;4.37;4.00;;;21.70;99.90;;;;;;5035627;28;20191;-80
2023/08/16 00:49:59;;;;;;;4.10;3.80;;;21.80;99.90;;;;;;5037371;28;20494;-82
2023/08/16 00:52:25;;;;;;;5.40;4.90;;;21.90;99.90;;;;;;5037510;28;20540;-83
2023/08/16 00:54:50;;;;;;;5.67;4.70;;;21.90;99.90;;;;;;5034914;28;20186;-81
2023/08/16 00:57:17;;;;;;;4.60;4.30;;;21.90;99.90;;;;;;5034213;28;20215;-82
2023/08/16 00:59:44;;;;;;;5.60;4.50;;;21.90;99.90;;;;;;5052297;28;20189;-83
2023/08/16 01:02:10;;;;;;;5.43;4.57;;;21.90;99.90;;;;;;5048603;28;20210;-83
2023/08/16 01:04:36;;;;;;;4.37;4.07;;;21.90;99.90;;;;;;5040573;28;20452;-81
2023/08/16 01:07:01;;;;;;;4.80;4.40;;;21.80;99.90;;;;;;5038788;28;20472;-80
2023/08/16 01:09:27;;;;;;;4.83;4.43;;;21.80;99.90;;;;;;5035684;28;20193;-81
2023/08/16 01:11:55;;;;;;;5.20;4.70;;;21.80;99.90;;;;;;5029565;28;20271;-80
2023/08/16 01:14:41;;;;;;;5.28;4.82;;;21.80;99.90;;;;;;5028415;28;20458;-80
2023/08/16 01:17:07;;;;;;;5.20;4.80;;;21.60;99.90;;;;;;5031253;28;20212;-83
2023/08/16 01:19:33;;;;;;;5.88;5.30;;;21.50;99.90;;;;;;5045548;28;20228;-84
2023/08/16 01:22:17;;;;;;;5.88;5.32;;;21.40;99.90;;;;;;5035872;28;20210;-82
2023/08/16 01:25:09;;;;;;;4.97;4.57;;;21.30;99.90;;;;;;5037023;28;20265;-83
2023/08/16 01:27:35;;;;;;;4.68;4.30;;;21.20;99.90;;;;;;5008801;28;20444;-83
2023/08/16 01:30:06;;;;;;;5.20;4.80;;;21.20;99.90;;;;;;5037807;28;20182;-84
2023/08/16 01:32:32;;;;;;;5.20;4.80;;;21.20;99.90;;;;;;5029850;28;20233;-82
2023/08/16 01:34:58;;;;;;;5.82;5.15;;;21.20;99.90;;;;;;5032620;28;20669;-83
2023/08/16 01:37:24;;;;;;;6.17;5.20;;;21.20;99.90;;;;;;5035671;28;20256;-83
2023/08/16 01:39:51;;;;;;;5.53;5.13;;;21.20;99.90;;;;;;5037195;28;20481;-80
2023/08/16 01:42:17;;;;;;;6.47;5.85;;;21.10;99.90;;;;;;5037847;28;20256;-80
2023/08/16 01:44:48;;;;;;;7.05;5.70;;;21.10;99.90;;;;;;5028897;28;20184;-80
2023/08/16 01:47:15;;;;;;;6.05;4.93;;;20.30;99.90;;;;;;5034677;28;20213;-80
2023/08/16 01:49:42;;;;;;;5.38;4.95;;;21.00;99.90;;;;;;5029065;28;20187;-80
2023/08/16 01:52:08;;;;;;;5.45;5.03;;;20.90;99.90;;;;;;5029421;28;20189;-81
2023/08/16 01:54:34;;;;;;;5.45;4.95;;;20.90;99.90;;;;;;5032044;28;20178;-81
2023/08/16 01:57:00;;;;;;;5.27;4.87;;;20.90;99.90;;;;;;5032016;28;20284;-81
2023/08/16 01:59:25;;;;;;;5.57;5.17;;;20.90;99.90;;;;;;5031458;28;20441;-82
2023/08/16 02:01:51;;;;;;;5.60;5.20;;;20.90;99.90;;;;;;5032926;28;20220;-81
2023/08/16 02:04:16;;;;;;;5.20;4.80;;;20.90;99.90;;;;;;5030325;28;20182;-80
2023/08/16 02:06:42;;;;;;;5.67;5.10;;;20.90;99.90;;;;;;5036353;28;20217;-83
2023/08/16 02:09:08;;;;;;;5.93;5.30;;;20.80;99.90;;;;;;5031312;28;20198;-84
2023/08/16 02:11:33;;;;;;;5.33;4.90;;;20.80;99.90;;;;;;5028206;28;20208;-81
2023/08/16 02:13:59;;;;;;;5.50;4.70;;;20.80;99.90;;;;;;5035172;28;20265;-80
2023/08/16 02:16:25;;;;;;;5.23;4.83;;;20.80;99.90;;;;;;5036636;28;20206;-81
2023/08/16 02:18:51;;;;;;;5.60;5.10;;;20.80;99.90;;;;;;5039643;28;20201;-81
2023/08/16 02:21:17;;;;;;;6.20;5.00;;;20.80;99.90;;;;;;5036061;28;20582;-81
2023/08/16 02:23:43;;;;;;;5.20;4.70;;;20.60;99.90;;;;;;5030443;28;20185;-80
2023/08/16 02:26:08;;;;;;;4.37;4.07;;;20.70;99.90;;;;;;5028321;28;20202;-81
2023/08/16 02:28:34;;;;;;;5.97;5.37;;;20.70;99.90;;;;;;5036875;28;20174;-81
2023/08/16 02:31:05;;;;;;;4.90;4.50;;;20.60;99.90;;;;;;5030774;28;20186;-82
2023/08/16 02:33:31;;;;;;;5.22;4.82;;;20.60;99.90;;;;;;5030093;28;20249;-81
2023/08/16 02:35:57;;;;;;;6.43;5.78;;;20.60;99.90;;;;;;5034276;28;20319;-80
2023/08/16 02:38:23;;;;;;;4.70;4.40;;;20.50;99.90;;;;;;5028478;28;20210;-80
2023/08/16 02:40:48;;;;;;;5.70;4.87;;;20.50;99.90;;;;;;5031260;28;20471;-81
2023/08/16 02:43:14;;;;;;;4.67;4.27;;;20.40;99.90;;;;;;5032219;28;20185;-81
2023/08/16 02:45:39;;;;;;;5.00;4.60;;;20.50;99.90;;;;;;5026627;28;20250;-81
2023/08/16 02:48:05;;;;;;;5.23;4.60;;;20.40;99.90;;;;;;5031416;28;20634;-81
2023/08/16 02:50:31;;;;;;;5.07;4.70;;;20.40;99.90;;;;;;5034199;28;20331;-83
2023/08/16 02:52:56;;;;;;;5.77;5.27;;;20.40;99.90;;;;;;5036115;28;20182;-81
2023/08/16 02:55:22;;;;;;;5.70;5.30;;;20.40;99.90;;;;;;5021252;28;20194;-80
2023/08/16 02:57:47;;;;;;;4.73;4.43;;;20.40;99.90;;;;;;5031725;28;20195;-82
2023/08/16 03:00:13;;;;;;;5.90;5.30;;;20.30;99.90;;;;;;5033328;28;20196;-80
2023/08/16 03:02:39;;;;;;;5.95;5.05;;;20.30;99.90;;;;;;5031666;28;20213;-80
2023/08/16 03:05:06;;;;;;;4.37;4.07;;;20.30;99.90;;;;;;5038533;28;20227;-80
2023/08/16 03:07:32;;;;;;;6.78;5.07;;;20.20;99.90;;;;;;5032846;28;20242;-81
2023/08/16 03:09:57;;;;;;;5.32;4.82;;;20.20;99.90;;;;;;5030050;28;20187;-80
2023/08/16 03:12:23;;;;;;;6.33;5.13;;;20.20;99.90;;;;;;5037863;28;20182;-80
2023/08/16 03:14:49;;;;;;;5.65;5.15;;;20.20;99.90;;;;;;5032663;28;20182;-81
2023/08/16 03:17:15;;;;;;;5.10;4.70;;;20.20;99.90;;;;;;5033634;28;20210;-83
2023/08/16 03:19:40;;;;;;;5.00;4.70;;;20.30;99.90;;;;;;5028279;28;20578;-80
2023/08/16 03:22:06;;;;;;;4.77;4.37;;;20.20;99.90;;;;;;5033222;28;20298;-81
2023/08/16 03:24:32;;;;;;;5.50;5.10;;;20.20;99.90;;;;;;5040637;28;20588;-80
2023/08/16 03:26:58;;;;;;;5.10;4.63;;;20.20;99.90;;;;;;5034593;28;20202;-80
2023/08/16 03:29:23;;;;;;;5.20;4.83;;;20.20;99.90;;;;;;5028040;28;20182;-82
2023/08/16 03:31:49;;;;;;;5.23;4.80;;;20.20;99.90;;;;;;5030494;28;20558;-80
2023/08/16 03:34:15;;;;;;;5.40;4.93;;;19.90;99.90;;;;;;5032055;28;20269;-81
2023/08/16 03:36:41;;;;;;;5.03;4.63;;;20.10;99.90;;;;;;5039185;28;20220;-80
2023/08/16 03:39:06;;;;;;;5.60;5.13;;;20.10;99.90;;;;;;5035755;28;20183;-80
2023/08/16 03:41:37;;;;;;;5.80;5.30;;;20.10;99.90;;;;;;5033758;28;20217;-80
2023/08/16 03:44:06;;;;;;;5.20;4.80;;;20.00;99.90;;;;;;5034643;28;20198;-82
2023/08/16 03:46:32;;;;;;;5.00;4.57;;;19.90;99.90;;;;;;5032017;28;20229;-80
2023/08/16 03:48:57;;;;;;;5.17;4.67;;;19.90;99.90;;;;;;5031643;28;20213;-79
2023/08/16 03:51:23;;;;;;;5.87;5.27;;;19.90;99.90;;;;;;5024549;28;20457;-78
2023/08/16 03:53:48;;;;;;;5.73;5.33;;;19.90;99.90;;;;;;5031985;28;20251;-81
2023/08/16 03:56:14;;;;;;;5.60;5.10;;;19.80;99.90;;;;;;5031178;28;20554;-81
2023/08/16 03:58:39;;;;;;;5.13;4.67;;;19.80;99.90;;;;;;5029074;28;20197;-80
2023/08/16 04:01:05;;;;;;;4.50;4.10;;;19.90;99.90;;;;;;5028104;28;20213;-81
2023/08/16 04:03:30;;;;;;;5.13;4.77;;;19.90;99.90;;;;;;5031648;28;20236;-80
2023/08/16 04:05:56;;;;;;;5.47;4.97;;;19.90;99.90;;;;;;5029753;28;20220;-80
2023/08/16 04:08:22;;;;;;;5.20;4.70;;;19.90;99.90;;;;;;5037618;28;20242;-82
2023/08/16 04:10:48;;;;;;;6.13;5.53;;;19.90;99.90;;;;;;5031361;28;20265;-80
2023/08/16 04:13:13;;;;;;;5.47;5.07;;;20.00;99.90;;;;;;5031304;28;20186;-81
2023/08/16 04:15:39;;;;;;;6.00;5.50;;;20.00;99.90;;;;;;5035009;28;20206;-82
2023/08/16 04:18:04;;;;;;;7.30;4.80;;;19.90;99.90;;;;;;5031362;28;20182;-80
2023/08/16 04:20:30;;;;;;;5.77;5.20;;;19.90;99.90;;;;;;5021987;28;20218;-80
2023/08/16 04:22:55;;;;;;;5.50;5.00;;;20.00;99.90;;;;;;5033076;28;20182;-81
2023/08/16 04:25:21;;;;;;;5.87;5.20;;;19.90;99.90;;;;;;5034299;28;20269;-82
2023/08/16 04:27:47;;;;;;;6.47;5.87;;;19.80;99.90;;;;;;5027886;28;20186;-83
2023/08/16 04:30:12;;;;;;;6.23;5.63;;;19.80;99.90;;;;;;5030265;28;20187;-80
2023/08/16 04:32:38;;;;;;;5.60;5.20;;;19.70;99.90;;;;;;5024555;28;20670;-80
2023/08/16 04:35:04;;;;;;;6.00;5.50;;;19.80;99.90;;;;;;5036723;28;20201;-80
2023/08/16 04:37:29;;;;;;;6.10;5.60;;;19.80;99.90;;;;;;5035262;28;20214;-80
2023/08/16 04:39:55;;;;;;;6.97;5.47;;;19.90;99.90;;;;;;5036142;28;20472;-80
2023/08/16 04:42:21;;;;;;;7.57;5.10;;;20.00;99.90;;;;;;5036996;28;20268;-81
2023/08/16 04:44:47;;;;;;;5.50;5.00;;;20.10;99.90;;;;;;5031585;28;20213;-81
2023/08/16 04:47:13;;;;;;;5.45;4.85;;;20.10;99.90;;;;;;5040187;28;20465;-81
2023/08/16 04:49:39;;;;;;;5.10;4.70;;;20.20;99.90;;;;;;5035964;28;20178;-80
2023/08/16 04:52:05;;;;;;;5.30;4.90;;;20.20;99.90;;;;;;5038654;28;20194;-80
2023/08/16 04:54:30;;;;;;;5.88;5.20;;;20.30;99.90;;;;;;5029307;28;20186;-80
2023/08/16 04:56:56;;;;;;;6.67;5.70;;;20.40;99.90;;;;;;5040528;28;20264;-80
2023/08/16 04:59:21;;;;;;;5.30;4.90;;;20.40;99.90;;;;;;5030180;28;20190;-80
2023/08/16 05:01:47;;;;;;;6.30;5.70;;;20.50;99.90;;;;;;5029108;28;20208;-80
2023/08/16 05:04:13;;;;;;;6.30;5.70;;;20.60;99.90;;;;;;5031667;28;20187;-79
2023/08/16 05:06:39;;;;;;;5.20;4.80;;;20.60;99.90;;;;;;5034545;28;20194;-81
2023/08/16 05:09:05;;;;;;;5.10;4.70;;;20.70;99.90;;;;;;5036621;28;20719;-80
2023/08/16 05:11:31;;;;;;;6.78;5.82;;;20.70;99.90;;;;;;5033100;28;20273;-81
2023/08/16 05:13:57;;;;;;;5.38;4.88;;;20.80;99.90;;;;;;5030522;28;20597;-80
2023/08/16 05:16:22;;;;;;;4.80;4.40;;;20.80;99.90;;;;;;5035705;28;20263;-80
2023/08/16 05:18:48;;;;;;;6.30;5.70;;;20.60;99.90;;;;;;5034902;28;20556;-81
2023/08/16 05:21:14;;;;;;;5.57;4.90;;;21.10;99.90;;;;;;5036252;28;20545;-80
2023/08/16 05:23:39;;;;;;;4.87;4.47;;;21.20;99.90;;;;;;5027407;28;20255;-82
2023/08/16 05:26:05;;;;;;;5.30;4.90;;;21.20;99.90;;;;;;5029494;28;20791;-80
2023/08/16 05:28:31;;;;;;;4.88;4.47;;;21.30;99.90;;;;;;5034142;28;20180;-80
2023/08/16 05:31:06;;;;;;;5.40;4.97;;;21.30;99.90;;;;;;5034579;28;20249;-80
2023/08/16 05:33:32;;;;;;;5.82;5.25;;;21.40;99.90;;;;;;5047518;28;20191;-83
2023/08/16 05:35:58;;;;;;;6.27;5.30;;;21.50;99.90;;;;;;5027377;28;20806;-82
2023/08/16 05:38:24;;;;;;;5.90;5.37;;;21.60;99.90;;;;;;5037474;28;20468;-80
2023/08/16 05:40:49;;;;;;;6.70;6.10;;;21.70;99.90;;;;;;5034686;28;20236;-80
2023/08/16 05:43:15;;;;;;;5.80;5.33;;;21.80;99.90;;;;;;5028242;28;20619;-80
2023/08/16 05:45:40;;;;;;;6.73;6.13;;;21.90;99.90;;;;;;5035497;28;20220;-80
2023/08/16 05:48:06;;;;;;;5.87;5.40;;;22.00;99.90;;;;;;5038654;28;20194;-80
2023/08/16 05:50:31;;;;;;;6.07;5.53;;;22.20;99.90;;;;;;5038000;28;20186;-81
2023/08/16 05:52:57;;;;;;;5.97;5.47;;;22.40;99.90;;;;;;5026836;28;20185;-80
2023/08/16 05:55:23;;;;;;;6.63;6.03;;;22.40;99.90;;;;;;5034857;28;20220;-81
2023/08/16 05:57:48;;;;;;;6.07;5.67;;;22.60;99.90;;;;;;5042245;28;20205;-81
2023/08/16 06:00:14;;;;;;;6.00;5.40;;;22.70;99.90;;;;;;5044026;28;20182;-82
2023/08/16 06:02:40;;;;;;;5.97;5.50;;;22.70;99.90;;;;;;5040439;28;20289;-82
2023/08/16 06:05:06;;;;;;;5.40;4.90;;;22.90;99.90;;;;;;5039873;28;20492;-81
2023/08/16 06:07:31;;;;;;;5.87;5.47;;;23.10;99.90;;;;;;5033012;28;20439;-80
2023/08/16 06:09:57;;;;;;;6.07;5.47;;;23.20;99.90;;;;;;5041790;28;20232;-80
2023/08/16 06:12:23;;;;;;;5.17;4.67;;;23.40;99.90;;;;;;5028807;28;20191;-82
2023/08/16 06:14:48;;;;;;;5.53;5.13;;;23.60;99.90;;;;;;5031598;28;20189;-80
2023/08/16 06:17:14;;;;;;;6.97;6.27;;;23.90;99.90;;;;;;5035383;28;20235;-82
2023/08/16 06:19:40;;;;;;;5.67;5.07;;;24.20;99.90;;;;;;5040529;28;20232;-81
2023/08/16 06:22:05;;;;;;;6.63;5.10;;;24.40;99.90;;;;;;5041341;28;20224;-80
2023/08/16 06:24:34;;;;;;;5.27;4.80;;;24.60;99.90;;;;;;5037017;28;20394;-81
2023/08/16 06:26:59;;;;;;;5.30;4.80;;;24.70;99.90;;;;;;5035451;28;20222;-80
2023/08/16 06:29:25;;;;;;;5.77;5.30;;;24.80;99.90;;;;;;5031790;28;20777;-80
2023/08/16 06:31:54;;;;;;;5.50;5.03;;;24.90;99.90;;;;;;5032627;28;20190;-81
2023/08/16 06:34:20;;;;;;;5.37;4.87;;;24.90;99.90;;;;;;5025066;28;20195;-80
2023/08/16 06:36:46;;;;;;;5.30;4.80;;;24.90;99.90;;;;;;5035053;28;20547;-81
2023/08/16 06:39:12;;;;;;;4.80;4.40;;;24.80;99.90;;;;;;5029096;28;20438;-80
2023/08/16 06:41:38;;;;;;;5.60;5.20;;;24.80;99.90;;;;;;5031767;28;20458;-80
2023/08/16 06:44:04;;;;;;;5.90;5.40;;;24.90;99.90;;;;;;5027500;28;20447;-80
2023/08/16 06:46:30;;;;;;;6.83;5.00;;;25.00;99.90;;;;;;5031553;28;20207;-81
2023/08/16 06:48:55;;;;;;;6.10;5.50;;;25.00;99.90;;;;;;5029901;28;20435;-82
2023/08/16 06:51:21;;;;;;;6.13;5.53;;;25.00;99.90;;;;;;5029914;28;20191;-82
2023/08/16 06:53:49;;;;;;;6.40;5.73;;;24.90;99.90;;;;;;5021947;28;20181;-82
2023/08/16 06:56:14;;;;;;;6.13;5.53;;;24.90;99.90;;;;;;5028054;28;20304;-80
2023/08/16 06:58:41;;;;;;;5.20;4.80;;;24.90;99.90;;;;;;5027184;28;20452;-82
2023/08/16 07:01:08;;;;;;;7.63;6.43;;;24.90;99.90;;;;;;5038152;28;20462;-80
2023/08/16 07:03:34;;;;;;;6.50;5.87;;;24.40;99.90;;;;;;5032573;28;20489;-80
2023/08/16 07:06:00;;;;;;;7.30;6.70;;;25.00;99.90;;;;;;5042065;28;20529;-80
2023/08/16 07:08:26;;;;;;;7.10;6.30;;;25.10;99.90;;;;;;5030789;28;20466;-80
2023/08/16 07:10:52;;;;;;;5.80;5.20;;;25.20;99.90;;;;;;5036805;28;20478;-81
2023/08/16 07:13:17;;;;;;;6.30;5.67;;;25.60;99.90;;;;;;5038956;28;20197;-82
2023/08/16 07:15:43;;;;;;;6.80;5.43;;;26.20;99.90;;;;;;5040033;28;20520;-81
2023/08/16 07:18:08;;;;;;;5.50;5.10;;;26.90;99.90;;;;;;5038081;28;20276;-81
2023/08/16 07:20:34;;;;;;;8.17;7.50;;;27.80;99.90;;;;;;5039413;28;20206;-81
2023/08/16 07:23:01;;;;;;;5.93;5.30;;;29.20;99.00;;;;;;5042955;28;20186;-84
2023/08/16 07:25:27;;;;;;;5.40;5.00;;;30.60;96.40;;;;;;5040834;28;20214;-81
2023/08/16 07:27:53;;;;;;;5.27;4.83;;;32.40;92.10;;;;;;5034726;28;20863;-81
2023/08/16 07:30:18;;;;;;;5.33;5.03;;;33.70;88.60;;;;;;5045779;28;20484;-83
2023/08/16 07:32:44;;;;;;;5.07;4.63;;;35.70;81.40;;;;;;5040771;28;20206;-83
2023/08/16 07:35:10;;;;;;;7.00;6.33;;;36.90;75.50;;;;;;5047821;28;20185;-82
2023/08/16 07:37:36;;;;;;;5.90;5.50;;;37.60;69.30;;;;;;5051802;28;20182;-84
2023/08/16 07:40:04;;;;;;;5.90;5.30;;;38.10;68.30;;;;;;5048974;28;20190;-83
2023/08/16 07:42:30;;;;;;;6.30;5.80;;;39.40;62.80;;;;;;5051298;28;20469;-83
2023/08/16 07:44:57;;;;;;;5.17;4.67;;;38.20;62.30;;;;;;5054251;28;20529;-84
2023/08/16 07:47:23;;;;;;;6.20;5.70;;;37.90;63.90;;;;;;5051159;28;20198;-83
2023/08/16 07:49:49;;;;;;;5.33;4.83;;;38.80;60.90;;;;;;5051101;28;20449;-83
2023/08/16 07:52:14;;;;;;;5.23;4.83;;;38.90;60.50;;;;;;5033542;28;20441;-83
2023/08/16 07:54:40;;;;;;;5.90;5.40;;;39.60;58.80;;;;;;5051272;28;20194;-83
2023/08/16 07:57:06;;;;;;;5.20;4.90;;;39.70;56.60;;;;;;5043395;28;20918;-82
2023/08/16 07:59:32;;;;;;;5.00;4.60;;;40.60;56.90;;;;;;5044935;28;20573;-82
2023/08/16 08:01:58;;;;;;;6.37;4.50;;;41.80;54.30;;;;;;5038545;28;20206;-82
2023/08/16 08:04:24;;;;;;;6.93;6.23;;;42.40;52.50;;;;;;5040794;28;20443;-84
2023/08/16 08:06:49;;;;;;;5.70;5.30;;;42.60;50.60;;;;;;5042135;28;20208;-82
2023/08/16 08:09:15;;;;;;;5.43;4.93;;;40.80;52.80;;;;;;5035177;28;20615;-84
2023/08/16 08:11:40;;;;;;;5.20;4.80;;;40.70;53.20;;;;;;5036528;28;20197;-82
2023/08/16 08:14:06;;;;;;;6.13;5.63;;;40.60;53.30;;;;;;5040377;28;20258;-82
2023/08/16 08:16:32;;;;;;;6.30;5.73;;;41.00;52.20;;;;;;5036096;28;20216;-82
2023/08/16 08:18:58;;;;;;;6.90;6.30;;;40.60;52.80;;;;;;5044372;28;20678;-84
2023/08/16 08:21:23;;;;;;;6.50;5.47;;;40.80;52.40;;;;;;5041180;28;20225;-83
2023/08/16 08:23:49;;;;;;;5.97;5.47;;;41.10;51.50;;;;;;5033113;28;20186;-83
2023/08/16 08:26:16;;;;;;;7.43;6.03;;;41.80;51.00;;;;;;5041666;28;20270;-84
2023/08/16 08:28:42;;;;;;;6.27;5.87;;;41.60;50.00;;;;;;5045089;28;20189;-83
2023/08/16 08:31:07;;;;;;;5.20;4.80;;;40.60;50.80;;;;;;5048467;28;20441;-83
2023/08/16 08:33:33;;;;;;;5.63;5.23;;;40.20;52.70;;;;;;5035534;28;20536;-83
2023/08/16 08:35:59;;;;;;;6.37;5.90;;;41.10;51.90;;;;;;5047263;28;20212;-83
2023/08/16 08:38:25;;;;;;;5.90;5.50;;;41.50;51.30;;;;;;5043870;28;20640;-83
2023/08/16 08:41:00;;;;;;;6.80;6.30;;;42.00;49.90;;;;;;5041333;28;20259;-83
2023/08/16 08:43:53;;;;;;;5.87;5.47;;;42.30;49.60;;;;;;5040315;28;20443;-84
2023/08/16 08:46:20;;;;;;;6.07;5.60;;;42.10;50.10;;;;;;5029421;28;20469;-82
2023/08/16 08:48:46;;;;;;;5.90;5.40;;;42.20;50.20;;;;;;5054416;28;20445;-83
2023/08/16 08:51:12;;;;;;;6.43;5.80;;;42.70;49.30;;;;;;5039538;28;20450;-83
2023/08/16 08:53:37;;;;;;;6.47;6.07;;;43.10;48.30;;;;;;5030771;28;20183;-82
2023/08/16 08:56:10;;;;;;;8.27;6.10;;;42.90;48.30;;;;;;5039327;28;20210;-82
2023/08/16 08:58:39;;;;;;;6.10;5.63;;;41.80;49.50;;;;;;5038114;28;20241;-82
2023/08/16 09:01:07;;;;;;;6.90;6.50;;;41.70;50.10;;;;;;5044070;28;20987;-82
2023/08/16 09:03:34;;;;;;;7.77;6.10;;;41.40;49.90;;;;;;5049287;28;20610;-83
2023/08/16 09:06:00;;;;;;;6.93;6.43;;;39.70;51.60;;;;;;5042676;28;20452;-81
2023/08/16 09:08:26;;;;;;;6.90;6.40;;;40.90;51.50;;;;;;5039722;28;20491;-83
2023/08/16 09:10:52;;;;;;;6.63;6.03;;;41.80;49.50;;;;;;5038021;28;20479;-82
2023/08/16 09:13:19;;;;;;;7.73;7.13;;;41.10;49.70;;;;;;5034881;28;20456;-82
2023/08/16 09:15:44;;;;;;;7.67;7.17;;;42.40;49.10;;;;;;5037083;28;20466;-82
2023/08/16 09:18:12;;;;;;;7.50;6.80;;;42.60;48.00;;;;;;5036962;28;21034;-82
2023/08/16 09:20:39;;;;;;;6.13;5.73;;;42.20;47.80;;;;;;5037104;28;20190;-81
2023/08/16 09:23:05;;;;;;;6.20;5.80;;;41.60;48.40;;;;;;5036016;28;20457;-81
2023/08/16 09:25:31;;;;;;;6.77;6.27;;;40.80;50.20;;;;;;5036866;28;20460;-81
2023/08/16 09:27:57;;;;;;;7.23;6.63;;;39.40;52.30;;;;;;5039910;28;20473;-81
2023/08/16 09:30:27;;;;;;;7.23;6.53;;;38.20;53.70;;;;;;5040613;28;20836;-82
2023/08/16 09:32:54;;;;;;;6.57;6.07;;;37.40;55.70;;;;;;5031322;28;20448;-82
2023/08/16 09:35:27;;;;;;;6.30;5.70;;;36.60;56.20;;;;;;5039236;28;20465;-82
2023/08/16 09:37:57;;;;;;;7.33;6.53;;;35.70;59.00;;;;;;5037459;28;20460;-80
2023/08/16 09:40:23;;;;;;;6.60;6.10;;;35.00;61.90;;;;;;5038271;28;20445;-82
2023/08/16 09:42:49;;;;;;;6.40;5.90;;;34.20;65.00;;;;;;5037085;28;20475;-81
2023/08/16 09:45:14;;;;;;;6.70;6.20;;;33.40;67.90;;;;;;5042126;28;20433;-83
2023/08/16 09:47:44;;;;;;;6.37;5.97;;;33.10;70.10;;;;;;5043311;28;20195;-83
2023/08/16 09:50:10;;;;;;;6.37;5.87;;;32.50;71.40;;;;;;5036640;28;20187;-82
2023/08/16 09:52:37;;;;;;;7.43;6.60;;;32.20;73.10;;;;;;5036745;28;20446;-83
2023/08/16 09:55:03;;;;;;;6.43;5.87;;;32.20;75.30;;;;;;5038169;28;20469;-83
2023/08/16 09:57:29;;;;;;;7.33;6.63;;;32.30;75.30;;;;;;5041779;28;20636;-83
2023/08/16 09:59:55;;;;;;;7.17;6.47;;;32.40;74.80;;;;;;5040571;28;20895;-82
2023/08/16 10:02:21;;;;;;;7.53;6.83;;;31.90;76.40;;;;;;5039331;28;20467;-82
2023/08/16 10:04:48;;;;;;;7.13;6.43;;;31.40;77.30;;;;;;5037489;28;20193;-84
2023/08/16 10:07:15;;;;;;;7.30;6.60;;;31.30;79.70;;;;;;5037325;28;20455;-82
2023/08/16 10:09:42;;;;;;;7.97;6.63;;;31.30;79.40;;;;;;5034394;28;20458;-81
2023/08/16 10:12:09;;;;;;;8.03;6.60;;;31.40;80.40;;;;;;5040833;28;21019;-83
2023/08/16 10:14:34;;;;;;;8.23;7.53;;;31.30;81.50;;;;;;5045035;28;20454;-82
2023/08/16 10:17:06;;;;;;;6.57;5.97;;;31.10;81.50;;;;;;5042222;28;20500;-82
2023/08/16 10:19:33;;;;;;;8.20;7.03;;;30.90;83.10;;;;;;5044756;28;20198;-82
2023/08/16 10:22:02;;;;;;;7.63;7.00;;;30.90;83.40;;;;;;5033351;28;20485;-81
2023/08/16 10:24:34;;;;;;;8.47;7.20;;;31.10;84.60;;;;;;5043146;28;20454;-81
2023/08/16 10:27:03;;;;;;;7.80;7.23;;;31.10;85.00;;;;;;5041845;28;20469;-82
2023/08/16 10:29:35;;;;;;;7.97;7.17;;;30.90;85.10;;;;;;5042840;28;20453;-83
2023/08/16 10:32:02;;;;;;;7.83;7.20;;;30.90;86.30;;;;;;5040719;28;20511;-82
2023/08/16 10:34:28;;;;;;;7.63;7.03;;;30.80;86.20;;;;;;5030510;28;20443;-81
2023/08/16 10:36:54;;;;;;;8.07;7.47;;;30.90;87.00;;;;;;5036331;28;20466;-81
2023/08/16 10:39:24;;;;;;;7.43;6.77;;;31.00;86.40;;;;;;5028562;28;20482;-83
2023/08/16 10:41:51;;;;;;;7.50;6.80;;;31.10;85.90;;;;;;5037319;28;20547;-84
2023/08/16 10:44:25;;;;;;;8.60;7.40;;;31.10;86.30;;;;;;5031024;28;20497;-82
2023/08/16 10:46:51;;;;;;;7.97;7.27;;;31.00;86.00;;;;;;5027959;28;20478;-82
2023/08/16 10:49:20;;;;;;;7.80;7.10;;;31.10;86.70;;;;;;5037908;28;20505;-83
2023/08/16 10:51:51;;;;;;;7.20;6.67;;;31.30;86.00;;;;;;5037923;28;20188;-82
2023/08/16 10:54:19;;;;;;;8.20;6.83;;;31.40;86.10;;;;;;5036729;28;21088;-81
2023/08/16 10:56:49;;;;;;;7.90;7.30;;;30.80;86.30;;;;;;5046843;28;20476;-84
2023/08/16 10:59:16;;;;;;;8.40;7.70;;;30.80;86.70;;;;;;5036323;28;20449;-83
2023/08/16 11:01:50;;;;;;;8.30;6.87;;;30.90;86.90;;;;;;5042510;28;20487;-82
2023/08/16 11:04:16;;;;;;;7.67;6.97;;;31.00;86.60;;;;;;5048372;28;20450;-81
2023/08/16 11:06:46;;;;;;;7.63;6.60;;;31.10;86.80;;;;;;5043870;28;20449;-82
2023/08/16 11:09:12;;;;;;;8.33;7.53;;;31.00;87.60;;;;;;5043426;28;20490;-82
2023/08/16 11:11:46;;;;;;;7.77;7.17;;;30.90;87.60;;;;;;5042173;28;20439;-83
2023/08/16 11:14:12;;;;;;;7.53;6.83;;;30.70;89.10;;;;;;5038900;28;20449;-83
2023/08/16 11:16:38;;;;;;;7.53;6.90;;;30.90;87.90;;;;;;5046062;28;20459;-84
2023/08/16 11:19:04;;;;;;;10.23;7.20;;;31.00;88.30;;;;;;5037139;28;20491;-84
2023/08/16 11:21:34;;;;;;;7.60;6.93;;;30.90;88.60;;;;;;5038706;28;20204;-82
2023/08/16 11:24:02;;;;;;;7.53;7.03;;;31.10;87.90;;;;;;5041045;28;20445;-82
2023/08/16 11:26:36;;;;;;;7.17;6.57;;;31.20;87.60;;;;;;5048547;28;20467;-81
2023/08/16 11:29:02;;;;;;;8.20;7.60;;;30.90;87.90;;;;;;5039738;28;20454;-83
2023/08/16 11:31:28;;;;;;;8.17;7.47;;;31.00;88.30;;;;;;5037483;28;20438;-84
2023/08/16 11:33:53;;;;;;;7.90;7.30;;;30.90;88.30;;;;;;5033849;28;20435;-82
2023/08/16 11:36:19;;;;;;;7.70;7.20;;;30.90;89.20;;;;;;5039424;28;20216;-82
2023/08/16 11:38:48;;;;;;;16.40;15.10;;;30.90;88.30;;;;;;5038285;28;20288;-82
2023/08/16 11:41:18;;;;;;;9.20;8.40;;;30.80;88.00;;;;;;5042483;28;20223;-83
2023/08/16 11:43:43;;;;;;;7.30;6.60;;;30.80;89.30;;;;;;5038261;28;20449;-84
2023/08/16 11:46:09;;;;;;;7.87;7.07;;;30.80;90.00;;;;;;5042003;28;22036;-82
2023/08/16 11:48:35;;;;;;;7.77;7.03;;;30.80;88.80;;;;;;5047306;28;20658;-82
2023/08/16 11:51:01;;;;;;;7.60;7.00;;;30.90;88.50;;;;;;5034272;28;20190;-82
2023/08/16 11:53:35;;;;;;;7.50;7.00;;;30.80;88.40;;;;;;5047458;28;20452;-82
2023/08/16 11:56:08;;;;;;;7.20;6.50;;;31.00;86.70;;;;;;5038446;28;20465;-83
2023/08/16 11:58:48;;;;;;;7.70;7.07;;;31.00;86.40;;;;;;5042420;28;20568;-81
2023/08/16 12:01:21;;;;;;;7.80;6.27;;;31.00;86.40;;;;;;5034276;28;20461;-82
2023/08/16 12:03:47;;;;;;;7.50;6.93;;;31.00;86.30;;;;;;5046278;28;20502;-82
2023/08/16 12:06:13;;;;;;;7.17;6.50;;;30.80;86.50;;;;;;5037989;28;20464;-81
2023/08/16 12:08:50;;;;;;;10.23;7.20;;;30.80;87.30;;;;;;5037608;28;20612;-81
2023/08/16 12:11:28;;;;;;;7.17;6.67;;;30.90;85.40;;;;;;5041706;28;20914;-82
2023/08/16 12:13:54;;;;;;;7.97;7.10;;;30.80;86.10;;;;;;5037151;28;20438;-83
2023/08/16 12:16:19;;;;;;;7.17;6.63;;;30.80;85.90;;;;;;5039657;28;20536;-82
2023/08/16 12:18:49;;;;;;;7.63;6.93;;;30.70;87.00;;;;;;5040672;28;20552;-83
2023/08/16 12:21:14;;;;;;;8.00;7.30;;;30.80;87.50;;;;;;5036785;28;20207;-84
2023/08/16 12:23:41;;;;;;;7.93;7.10;;;30.80;88.20;;;;;;5040759;28;20517;-81
2023/08/16 12:26:06;;;;;;;7.93;7.23;;;30.80;86.10;;;;;;5034185;28;20218;-83
2023/08/16 12:28:32;;;;;;;7.57;6.47;;;30.90;86.50;;;;;;5036222;28;20523;-82
2023/08/16 12:30:58;;;;;;;7.40;6.80;;;30.80;86.10;;;;;;5044734;28;20189;-82
2023/08/16 12:33:23;;;;;;;6.73;6.17;;;30.50;86.30;;;;;;5030919;28;20194;-84
2023/08/16 12:35:49;;;;;;;7.73;7.13;;;30.70;87.80;;;;;;5044108;28;20209;-82
2023/08/16 12:38:15;;;;;;;6.83;6.23;;;30.90;86.50;;;;;;5037819;28;20192;-81
2023/08/16 12:40:41;;;;;;;7.23;6.50;;;31.10;87.20;;;;;;5038766;28;20762;-82
2023/08/16 12:43:07;;;;;;;8.17;6.83;;;31.10;85.60;;;;;;5039948;28;20446;-82